createdAt,value
2022-10-09T00:01:24.634Z,7.43
2022-10-09T00:03:53.972Z,6.67
2022-10-09T00:06:26.866Z,6.20
2022-10-09T00:08:54.340Z,6.33
2022-10-09T00:11:24.594Z,5.60
2022-10-09T00:13:52.699Z,5.17
2022-10-09T00:16:21.452Z,5.50
2022-10-09T00:18:49.535Z,5.30
2022-10-09T00:21:19.438Z,5.30
2022-10-09T00:23:46.947Z,4.90
2022-10-09T00:26:14.812Z,5.10
2022-10-09T00:28:42.630Z,4.83
2022-10-09T00:31:11.393Z,4.80
2022-10-09T00:33:38.891Z,5.10
2022-10-09T00:36:12.448Z,5.33
2022-10-09T00:38:39.922Z,5.10
2022-10-09T00:41:07.758Z,5.03
2022-10-09T00:43:51.616Z,5.83
2022-10-09T00:46:26.952Z,5.27
2022-10-09T00:49:02.949Z,5.63
2022-10-09T00:51:31.568Z,5.33
2022-10-09T00:53:59.562Z,5.93
2022-10-09T00:56:27.363Z,5.43
2022-10-09T00:58:57.558Z,4.80
2022-10-09T01:01:24.911Z,5.50
2022-10-09T01:03:52.331Z,5.17
2022-10-09T01:06:43.997Z,4.73
2022-10-09T01:09:23.100Z,5.83
2022-10-09T01:12:12.640Z,4.80
2022-10-09T01:14:48.062Z,5.07
2022-10-09T01:17:40.895Z,5.10
2022-10-09T01:20:43.372Z,5.00
2022-10-09T01:23:13.424Z,4.13
2022-10-09T01:25:56.703Z,4.63
2022-10-09T01:28:30.372Z,4.00
2022-10-09T01:31:02.952Z,4.10
2022-10-09T01:33:32.319Z,3.10
2022-10-09T01:36:01.252Z,2.57
2022-10-09T01:38:29.523Z,3.20
2022-10-09T01:40:57.440Z,3.43
2022-10-09T01:43:24.890Z,3.40
2022-10-09T01:45:52.334Z,4.10
2022-10-09T01:48:25.285Z,3.70
2022-10-09T01:50:58.205Z,2.90
2022-10-09T01:53:26.683Z,2.67
2022-10-09T01:56:07.298Z,2.80
2022-10-09T01:58:44.274Z,2.37
2022-10-09T02:01:18.575Z,2.87
2022-10-09T02:03:48.848Z,2.80
2022-10-09T02:06:18.041Z,2.20
2022-10-09T02:08:49.768Z,2.40
2022-10-09T02:11:17.715Z,2.53
2022-10-09T02:13:47.890Z,2.50
2022-10-09T02:16:37.188Z,2.67
2022-10-09T02:19:07.904Z,2.80
2022-10-09T02:21:58.016Z,2.97
2022-10-09T02:24:25.971Z,3.07
2022-10-09T02:26:54.400Z,2.53
2022-10-09T02:29:22.119Z,3.07
2022-10-09T02:31:49.480Z,3.07
2022-10-09T02:34:19.416Z,2.80
2022-10-09T02:36:47.494Z,3.00
2022-10-09T02:39:15.108Z,3.23
2022-10-09T02:41:42.516Z,3.20
2022-10-09T02:44:09.976Z,3.23
2022-10-09T02:46:38.690Z,3.17
2022-10-09T02:49:06.814Z,2.80
2022-10-09T02:51:34.553Z,3.20
2022-10-09T02:54:01.954Z,2.70
2022-10-09T02:56:29.295Z,2.83
2022-10-09T02:58:57.046Z,2.20
2022-10-09T03:01:24.863Z,3.27
2022-10-09T03:03:52.486Z,2.50
2022-10-09T03:06:23.248Z,2.43
2022-10-09T03:08:52.282Z,2.60
2022-10-09T03:11:20.952Z,2.10
2022-10-09T03:13:48.272Z,2.30
2022-10-09T03:16:21.640Z,2.33
2022-10-09T03:18:50.283Z,2.10
2022-10-09T03:21:20.647Z,2.43
2022-10-09T03:23:49.710Z,2.20
2022-10-09T03:26:19.785Z,2.03
2022-10-09T03:28:48.806Z,2.00
2022-10-09T03:31:39.244Z,2.50
2022-10-09T03:34:05.265Z,1.90
2022-10-09T03:36:32.544Z,2.23
2022-10-09T03:38:59.769Z,2.27
2022-10-09T03:41:27.276Z,2.40
2022-10-09T03:43:54.492Z,2.40
2022-10-09T03:46:22.084Z,2.43
2022-10-09T03:48:49.438Z,2.00
2022-10-09T03:51:16.903Z,2.50
2022-10-09T03:53:44.253Z,2.50
2022-10-09T03:56:11.464Z,2.00
2022-10-09T03:58:39.007Z,2.40
2022-10-09T04:01:06.599Z,2.53
2022-10-09T04:03:33.930Z,2.10
2022-10-09T04:06:01.323Z,2.13
2022-10-09T04:08:28.538Z,2.23
2022-10-09T04:11:00.936Z,2.57
2022-10-09T04:13:28.454Z,2.07
2022-10-09T04:15:56.737Z,1.97
2022-10-09T04:18:24.949Z,1.93
2022-10-09T04:20:54.494Z,2.10
2022-10-09T04:23:25.565Z,2.20
2022-10-09T04:25:54.946Z,2.30
2022-10-09T04:28:23.462Z,2.50
2022-10-09T04:30:50.954Z,2.17
2022-10-09T04:33:18.401Z,2.27
2022-10-09T04:35:46.861Z,2.40
2022-10-09T04:38:14.080Z,2.13
2022-10-09T04:40:41.715Z,2.13
2022-10-09T04:43:08.967Z,2.43
2022-10-09T04:45:40.545Z,2.60
2022-10-09T04:48:07.922Z,2.47
2022-10-09T04:50:38.898Z,2.73
2022-10-09T04:53:06.167Z,2.73
2022-10-09T04:55:33.368Z,2.40
2022-10-09T04:58:00.592Z,3.03
2022-10-09T05:00:28.102Z,2.70
2022-10-09T05:02:55.414Z,2.73
2022-10-09T05:05:22.767Z,2.50
2022-10-09T05:07:50.275Z,2.90
2022-10-09T05:10:17.541Z,2.77
2022-10-09T05:12:44.789Z,2.73
2022-10-09T05:15:11.995Z,2.63
2022-10-09T05:17:39.318Z,2.37
2022-10-09T05:20:07.185Z,2.40
2022-10-09T05:22:34.407Z,2.30
2022-10-09T05:25:01.891Z,2.40
2022-10-09T05:27:29.116Z,2.10
2022-10-09T05:29:56.358Z,2.30
2022-10-09T05:32:23.618Z,2.33
2022-10-09T05:34:50.819Z,2.30
2022-10-09T05:37:18.115Z,2.57
2022-10-09T05:39:45.448Z,3.10
2022-10-09T05:42:12.713Z,3.50
2022-10-09T05:44:39.929Z,3.10
2022-10-09T05:47:07.272Z,2.50
2022-10-09T05:49:34.519Z,2.43
2022-10-09T05:52:01.916Z,2.50
2022-10-09T05:54:29.287Z,2.50
2022-10-09T05:56:56.487Z,2.50
2022-10-09T05:59:24.408Z,2.50
2022-10-09T06:01:52.103Z,2.07
2022-10-09T06:04:22.692Z,2.30
2022-10-09T06:06:50.819Z,2.80
2022-10-09T06:09:23.016Z,2.30
2022-10-09T06:11:51.688Z,2.60
2022-10-09T06:14:22.039Z,2.70
2022-10-09T06:16:50.297Z,2.70
2022-10-09T06:19:19.598Z,2.60
2022-10-09T06:21:48.018Z,2.70
2022-10-09T06:24:20.040Z,2.27
2022-10-09T06:26:49.437Z,2.37
2022-10-09T06:29:16.879Z,2.40
2022-10-09T06:31:44.124Z,2.13
2022-10-09T06:34:11.507Z,2.20
2022-10-09T06:36:38.919Z,2.40
2022-10-09T06:39:07.559Z,2.63
2022-10-09T06:41:35.649Z,2.33
2022-10-09T06:44:16.572Z,2.03
2022-10-09T06:46:45.615Z,2.20
2022-10-09T06:49:12.885Z,2.40
2022-10-09T06:51:40.598Z,1.93
2022-10-09T06:54:13.594Z,1.97
2022-10-09T06:56:41.505Z,2.07
2022-10-09T06:59:10.157Z,2.10
2022-10-09T07:01:37.585Z,1.70
2022-10-09T07:04:07.671Z,2.00
2022-10-09T07:06:39.803Z,1.90
2022-10-09T07:09:09.419Z,2.00
2022-10-09T07:11:39.724Z,1.70
2022-10-09T07:14:08.520Z,1.73
2022-10-09T07:16:41.756Z,2.30
2022-10-09T07:19:11.633Z,1.60
2022-10-09T07:21:41.474Z,1.77
2022-10-09T07:24:09.582Z,2.10
2022-10-09T07:26:39.796Z,1.67
2022-10-09T07:29:09.809Z,2.20
2022-10-09T07:31:37.051Z,1.97
2022-10-09T07:34:06.198Z,1.80
2022-10-09T07:36:33.970Z,1.90
2022-10-09T07:39:01.662Z,1.70
2022-10-09T07:41:30.047Z,1.70
2022-10-09T07:43:58.260Z,2.10
2022-10-09T07:46:32.156Z,2.03
2022-10-09T07:49:00.481Z,2.03
2022-10-09T07:51:29.216Z,2.03
2022-10-09T07:53:57.341Z,2.03
2022-10-09T07:56:29.081Z,1.90
2022-10-09T07:59:01.861Z,2.00
2022-10-09T08:01:30.193Z,1.83
2022-10-09T08:04:00.311Z,2.53
2022-10-09T08:06:28.465Z,1.93
2022-10-09T08:08:57.831Z,2.20
2022-10-09T08:11:27.112Z,2.37
2022-10-09T08:13:54.529Z,2.17
2022-10-09T08:16:23.453Z,2.07
2022-10-09T08:18:55.822Z,2.40
2022-10-09T08:21:23.370Z,2.37
2022-10-09T08:23:55.608Z,2.23
2022-10-09T08:26:24.280Z,2.73
2022-10-09T08:28:53.757Z,2.87
2022-10-09T08:31:21.759Z,2.00
2022-10-09T08:33:53.433Z,2.50
2022-10-09T08:36:21.447Z,2.90
2022-10-09T08:38:49.345Z,2.67
2022-10-09T08:41:34.554Z,2.90
2022-10-09T08:44:11.447Z,2.90
2022-10-09T08:46:46.941Z,2.80
2022-10-09T08:49:26.147Z,2.60
2022-10-09T08:51:56.023Z,2.80
2022-10-09T08:54:39.351Z,3.07
2022-10-09T08:57:14.020Z,2.60
2022-10-09T08:59:41.547Z,3.10
2022-10-09T09:02:33.843Z,2.80
2022-10-09T09:05:39.244Z,2.93
2022-10-09T09:08:30.845Z,3.30
2022-10-09T09:11:11.268Z,2.93
2022-10-09T09:14:13.515Z,4.50
2022-10-09T09:17:30.699Z,3.10
2022-10-09T09:20:21.936Z,2.80
2022-10-09T09:22:50.393Z,3.70
2022-10-09T09:25:28.434Z,5.13
2022-10-09T09:28:02.145Z,3.17
2022-10-09T09:30:37.976Z,2.93
2022-10-09T09:33:25.143Z,3.10
2022-10-09T09:36:24.497Z,2.70
2022-10-09T09:39:36.210Z,2.80
2022-10-09T09:41:42.102Z,2.83
2022-10-09T09:44:14.714Z,2.47
2022-10-09T09:46:43.917Z,2.63
2022-10-09T09:49:23.710Z,2.80
2022-10-09T09:51:51.322Z,2.53
2022-10-09T09:54:22.770Z,2.50
2022-10-09T09:59:41.663Z,3.80
2022-10-09T10:02:23.873Z,3.33
2022-10-09T10:04:51.463Z,3.63
2022-10-09T10:07:33.423Z,3.30
2022-10-09T10:10:09.700Z,3.43
2022-10-09T10:12:46.066Z,2.30
2022-10-09T10:15:33.872Z,3.00
2022-10-09T10:18:06.794Z,2.63
2022-10-09T10:20:52.541Z,2.60
2022-10-09T10:23:51.869Z,1.93
2022-10-09T10:26:52.103Z,2.50
2022-10-09T10:29:31.814Z,2.67
2022-10-09T10:32:15.623Z,2.33
2022-10-09T10:34:57.944Z,2.47
2022-10-09T10:37:31.908Z,2.23
2022-10-09T10:40:12.457Z,2.30
2022-10-09T10:42:57.470Z,2.03
2022-10-09T10:45:58.120Z,1.90
2022-10-09T10:48:29.545Z,2.13
2022-10-09T10:51:30.116Z,2.90
2022-10-09T10:54:35.341Z,2.70
2022-10-09T10:57:09.231Z,1.97
2022-10-09T10:59:42.110Z,2.70
2022-10-09T11:02:45.077Z,2.60
2022-10-09T11:05:22.860Z,2.00
2022-10-09T11:08:14.834Z,2.17
2022-10-09T11:11:06.464Z,1.67
2022-10-09T11:13:41.619Z,2.00
2022-10-09T11:16:14.951Z,2.10
2022-10-09T11:18:48.316Z,1.80
2022-10-09T11:21:33.912Z,1.90
2022-10-09T11:24:38.864Z,1.70
2022-10-09T11:27:37.598Z,1.87
2022-10-09T11:30:13.842Z,2.13
2022-10-09T11:32:59.771Z,1.77
2022-10-09T11:35:48.445Z,1.90
2022-10-09T11:38:25.430Z,2.00
2022-10-09T11:40:53.878Z,2.17
2022-10-09T11:43:26.964Z,1.87
2022-10-09T11:46:15.379Z,2.17
2022-10-09T11:48:56.139Z,1.67
2022-10-09T11:51:29.656Z,1.90
2022-10-09T11:53:57.754Z,2.30
2022-10-09T11:56:30.459Z,1.90
2022-10-09T11:59:05.346Z,1.70
2022-10-09T12:01:39.382Z,1.63
2022-10-09T12:04:32.177Z,1.40
2022-10-09T12:07:09.358Z,2.13
2022-10-09T12:09:41.551Z,1.97
2022-10-09T12:12:18.535Z,1.73
2022-10-09T12:14:49.271Z,1.63
2022-10-09T12:17:23.870Z,1.60
2022-10-09T12:19:58.714Z,1.60
2022-10-09T12:22:33.970Z,1.53
2022-10-09T12:25:08.533Z,1.43
2022-10-09T12:27:41.299Z,1.37
2022-10-09T12:30:12.595Z,1.30
2022-10-09T12:33:05.637Z,1.73
2022-10-09T12:35:36.695Z,1.50
2022-10-09T12:38:24.604Z,1.57
2022-10-09T12:40:54.650Z,1.37
2022-10-09T12:43:23.696Z,1.20
2022-10-09T12:45:53.396Z,1.50
2022-10-09T12:48:26.088Z,1.40
2022-10-09T12:50:54.360Z,1.00
2022-10-09T12:53:27.272Z,1.90
2022-10-09T12:56:00.899Z,1.33
2022-10-09T12:58:39.572Z,1.50
2022-10-09T13:01:12.078Z,1.50
2022-10-09T13:03:43.277Z,1.67
2022-10-09T13:06:20.865Z,1.53
2022-10-09T13:09:05.250Z,1.40
2022-10-09T13:11:40.380Z,1.10
2022-10-09T13:14:28.550Z,1.60
2022-10-09T13:16:55.959Z,1.07
2022-10-09T13:19:29.200Z,1.63
2022-10-09T13:22:18.225Z,1.43
2022-10-09T13:24:45.915Z,1.97
2022-10-09T13:27:19.471Z,1.50
2022-10-09T13:29:48.187Z,1.33
2022-10-09T13:32:17.259Z,1.40
2022-10-09T13:34:45.829Z,1.67
2022-10-09T13:37:17.982Z,1.43
2022-10-09T13:39:45.495Z,1.53
2022-10-09T13:42:15.856Z,1.33
2022-10-09T13:44:43.902Z,1.33
2022-10-09T13:47:11.519Z,1.47
2022-10-09T13:49:38.900Z,1.87
2022-10-09T13:52:06.123Z,1.63
2022-10-09T13:54:33.384Z,1.43
2022-10-09T13:57:00.762Z,1.50
2022-10-09T13:59:28.510Z,1.60
2022-10-09T14:01:55.761Z,1.83
2022-10-09T14:04:23.408Z,1.57
2022-10-09T14:06:50.690Z,1.77
2022-10-09T14:09:17.911Z,1.70
2022-10-09T14:11:45.276Z,1.70
2022-10-09T14:14:12.655Z,1.53
2022-10-09T14:16:40.344Z,1.70
2022-10-09T14:19:07.995Z,1.60
2022-10-09T14:21:35.418Z,1.40
2022-10-09T14:24:05.449Z,1.90
2022-10-09T14:26:34.023Z,1.80
2022-10-09T14:29:02.968Z,1.33
2022-10-09T14:31:30.567Z,1.60
2022-10-09T14:33:59.623Z,1.73
2022-10-09T14:36:27.743Z,1.20
2022-10-09T14:38:55.916Z,1.60
2022-10-09T14:41:23.284Z,1.87
2022-10-09T14:43:56.749Z,1.37
2022-10-09T14:46:24.411Z,1.70
2022-10-09T14:48:54.834Z,1.50
2022-10-09T14:51:24.995Z,1.10
2022-10-09T14:53:56.995Z,1.50
2022-10-09T14:56:25.468Z,1.30
2022-10-09T14:58:53.390Z,1.23
2022-10-09T15:01:22.636Z,1.60
2022-10-09T15:03:50.433Z,1.13
2022-10-09T15:06:20.129Z,1.50
2022-10-09T15:08:47.498Z,1.20
2022-10-09T15:11:14.842Z,1.67
2022-10-09T15:13:42.278Z,1.23
2022-10-09T15:16:12.850Z,1.33
2022-10-09T15:18:40.417Z,2.73
2022-10-09T15:21:17.178Z,1.50
2022-10-09T15:23:44.837Z,1.40
2022-10-09T15:26:13.464Z,2.10
2022-10-09T15:28:42.101Z,6.00
2022-10-09T15:31:22.471Z,11.47
2022-10-09T15:33:51.941Z,9.37
2022-10-09T15:36:20.359Z,1.90
2022-10-09T15:38:48.174Z,1.50
2022-10-09T15:41:27.015Z,1.50
2022-10-09T15:43:56.880Z,1.40
2022-10-09T15:46:25.077Z,1.50
2022-10-09T15:48:52.752Z,1.40
2022-10-09T15:51:20.827Z,1.60
2022-10-09T15:53:50.180Z,1.40
2022-10-09T15:56:24.338Z,1.10
2022-10-09T15:58:52.691Z,1.10
2022-10-09T16:01:20.865Z,1.30
2022-10-09T16:03:48.929Z,1.60
2022-10-09T16:06:19.435Z,1.40
2022-10-09T16:08:47.774Z,2.10
2022-10-09T16:11:19.151Z,2.27
2022-10-09T16:13:49.261Z,1.33
2022-10-09T16:16:19.674Z,1.23
2022-10-09T16:18:47.913Z,1.10
2022-10-09T16:21:20.901Z,1.10
2022-10-09T16:23:48.242Z,1.60
2022-10-09T16:26:19.023Z,1.30
2022-10-09T16:28:47.351Z,1.27
2022-10-09T16:31:21.080Z,1.43
2022-10-09T16:33:48.794Z,1.47
2022-10-09T16:36:16.375Z,1.30
2022-10-09T16:38:44.058Z,1.17
2022-10-09T16:41:17.681Z,1.83
2022-10-09T16:43:46.973Z,1.60
2022-10-09T16:46:29.655Z,2.33
2022-10-09T16:48:58.380Z,2.53
2022-10-09T16:51:31.878Z,2.53
2022-10-09T16:54:00.829Z,2.20
2022-10-09T16:56:33.033Z,1.90
2022-10-09T16:59:02.235Z,4.67
2022-10-09T17:01:29.929Z,3.60
2022-10-09T17:03:59.239Z,2.90
2022-10-09T17:06:27.106Z,2.40
2022-10-09T17:08:57.673Z,2.20
2022-10-09T17:11:26.995Z,3.30
2022-10-09T17:13:58.078Z,4.70
2022-10-09T17:16:32.750Z,5.30
2022-10-09T17:19:01.228Z,2.30
2022-10-09T17:21:32.920Z,1.90
2022-10-09T17:24:04.150Z,2.13
2022-10-09T17:26:31.532Z,2.03
2022-10-09T17:28:59.993Z,1.97
2022-10-09T17:31:28.712Z,1.80
2022-10-09T17:34:01.899Z,2.00
2022-10-09T17:36:32.149Z,1.77
2022-10-09T17:39:00.220Z,3.63
2022-10-09T17:41:28.403Z,4.97
2022-10-09T17:43:56.843Z,3.70
2022-10-09T17:46:26.320Z,2.20
2022-10-09T17:48:56.095Z,3.03
2022-10-09T17:51:39.497Z,3.10
2022-10-09T17:54:11.980Z,3.13
2022-10-09T17:56:40.260Z,1.60
2022-10-09T17:59:08.409Z,2.03
2022-10-09T18:01:35.924Z,3.43
2022-10-09T18:04:03.879Z,2.43
2022-10-09T18:06:33.934Z,1.80
2022-10-09T18:09:02.221Z,1.60
2022-10-09T18:11:30.131Z,1.27
2022-10-09T18:13:58.078Z,1.67
2022-10-09T18:16:35.365Z,1.83
2022-10-09T18:19:12.432Z,2.00
2022-10-09T18:21:43.172Z,1.87
2022-10-09T18:24:11.591Z,1.60
2022-10-09T18:26:39.614Z,1.60
2022-10-09T18:29:06.937Z,1.07
2022-10-09T18:31:34.423Z,1.27
2022-10-09T18:34:02.133Z,1.07
2022-10-09T18:36:34.953Z,1.30
2022-10-09T18:39:09.407Z,1.90
2022-10-09T18:41:37.956Z,3.47
2022-10-09T18:44:07.769Z,4.23
2022-10-09T18:46:40.907Z,2.23
2022-10-09T18:49:12.220Z,2.33
2022-10-09T18:51:41.717Z,1.80
2022-10-09T18:54:13.230Z,1.67
2022-10-09T18:56:43.166Z,1.63
2022-10-09T18:59:15.045Z,25.47
2022-10-09T19:01:42.448Z,5.37
2022-10-09T19:04:09.795Z,22.57
2022-10-09T19:06:37.141Z,15.93
2022-10-09T19:09:04.845Z,17.43
2022-10-09T19:11:33.578Z,13.50
2022-10-09T19:14:01.059Z,6.50
2022-10-09T19:16:30.342Z,3.03
2022-10-09T19:18:59.440Z,2.20
2022-10-09T19:21:26.800Z,2.20
2022-10-09T19:23:54.816Z,2.20
2022-10-09T19:26:23.130Z,2.00
2022-10-09T19:28:50.444Z,2.20
2022-10-09T19:31:17.794Z,2.63
2022-10-09T19:33:45.364Z,2.40
2022-10-09T19:36:14.434Z,2.40
2022-10-09T19:38:42.057Z,2.13
2022-10-09T19:41:15.541Z,2.20
2022-10-09T19:43:43.229Z,2.20
2022-10-09T19:46:14.198Z,3.80
2022-10-09T19:48:41.490Z,2.47
2022-10-09T19:51:12.998Z,2.17
2022-10-09T19:53:40.712Z,3.10
2022-10-09T19:56:20.084Z,2.47
2022-10-09T19:58:48.666Z,2.50
2022-10-09T20:01:18.397Z,2.70
2022-10-09T20:03:46.420Z,2.97
2022-10-09T20:06:14.522Z,2.80
2022-10-09T20:08:42.778Z,2.80
2022-10-09T20:11:11.436Z,3.47
2022-10-09T20:13:40.470Z,2.90
2022-10-09T20:16:11.503Z,3.10
2022-10-09T20:18:42.078Z,2.70
2022-10-09T20:21:10.978Z,2.57
2022-10-09T20:23:38.713Z,2.70
2022-10-09T20:26:09.506Z,2.83
2022-10-09T20:28:38.183Z,2.73
2022-10-09T20:31:08.042Z,2.40
2022-10-09T20:33:37.318Z,2.50
2022-10-09T20:36:06.201Z,2.53
2022-10-09T20:38:33.808Z,3.00
2022-10-09T20:41:07.541Z,2.40
2022-10-09T20:43:35.659Z,2.57
2022-10-09T20:46:11.425Z,2.27
2022-10-09T20:48:39.236Z,2.20
2022-10-09T20:51:06.626Z,2.77
2022-10-09T20:53:33.880Z,2.47
2022-10-09T20:56:03.072Z,2.33
2022-10-09T20:58:30.654Z,2.63
2022-10-09T21:00:58.250Z,2.67
2022-10-09T21:03:25.731Z,2.40
2022-10-09T21:05:53.154Z,2.10
2022-10-09T21:08:20.563Z,2.93
2022-10-09T21:10:49.566Z,2.43
2022-10-09T21:13:17.193Z,2.70
2022-10-09T21:15:46.335Z,1.97
2022-10-09T21:18:15.232Z,2.50
2022-10-09T21:20:44.416Z,3.97
2022-10-09T21:23:13.630Z,4.60
2022-10-09T21:25:50.870Z,4.00
2022-10-09T21:28:20.043Z,3.03
2022-10-09T21:30:47.334Z,2.83
2022-10-09T21:33:15.626Z,3.33
2022-10-09T21:35:45.941Z,3.50
2022-10-09T21:38:15.612Z,3.23
2022-10-09T21:40:43.232Z,3.13
2022-10-09T21:43:10.816Z,3.30
2022-10-09T21:45:39.905Z,3.63
2022-10-09T21:48:07.636Z,3.47
2022-10-09T21:50:36.395Z,3.13
2022-10-09T21:53:04.083Z,3.37
2022-10-09T21:55:31.323Z,3.37
2022-10-09T21:57:58.575Z,4.10
2022-10-09T22:00:25.807Z,4.20
2022-10-09T22:02:53.421Z,4.30
2022-10-09T22:05:20.750Z,4.63
2022-10-09T22:07:47.987Z,3.80
2022-10-09T22:10:15.338Z,4.20
2022-10-09T22:12:42.698Z,4.20
2022-10-09T22:15:10.423Z,3.47
2022-10-09T22:17:37.664Z,4.37
2022-10-09T22:20:05.298Z,4.50
2022-10-09T22:22:32.623Z,4.30
2022-10-09T22:25:00.355Z,4.37
2022-10-09T22:27:28.321Z,4.87
2022-10-09T22:29:55.681Z,4.30
2022-10-09T22:32:23.024Z,3.67
2022-10-09T22:34:52.006Z,3.93
2022-10-09T22:37:19.354Z,4.50
2022-10-09T22:39:47.037Z,3.83
2022-10-09T22:42:14.428Z,4.20
2022-10-09T22:44:41.638Z,4.57
2022-10-09T22:47:08.975Z,3.70
2022-10-09T22:49:36.223Z,3.97
2022-10-09T22:52:03.720Z,4.00
2022-10-09T22:54:30.921Z,4.17
2022-10-09T22:56:58.185Z,4.70
2022-10-09T22:59:25.459Z,4.90
2022-10-09T23:01:58.484Z,4.13
2022-10-09T23:04:26.012Z,4.87
2022-10-09T23:06:58.463Z,4.40
2022-10-09T23:09:28.683Z,4.20
2022-10-09T23:11:57.088Z,5.07
2022-10-09T23:14:25.715Z,4.63
2022-10-09T23:16:53.348Z,5.23
2022-10-09T23:19:20.567Z,4.40
2022-10-09T23:21:48.065Z,4.17
2022-10-09T23:24:17.507Z,4.70
2022-10-09T23:26:46.567Z,4.37
2022-10-09T23:29:16.530Z,4.30
2022-10-09T23:31:44.430Z,4.20
2022-10-09T23:34:11.880Z,4.83
2022-10-09T23:36:39.469Z,4.10
2022-10-09T23:39:07.247Z,3.70
2022-10-09T23:41:35.095Z,3.60
2022-10-09T23:44:02.589Z,4.30
2022-10-09T23:46:33.737Z,4.17
2022-10-09T23:49:01.546Z,4.43
2022-10-09T23:51:29.684Z,4.33
2022-10-09T23:53:58.295Z,4.30
2022-10-09T23:56:31.635Z,3.80
2022-10-09T23:59:00.588Z,3.83
